sensor_id;sensor_type;location;lat;lon;timestamp;pressure;altitude;pressure_sealevel;temperature
79756;BMP280;69239;50.678;12.280;2023-04-16T00:01:57;97311.28;;;9.31
79756;BMP280;69239;50.678;12.280;2023-04-16T00:04:22;97307.38;;;9.29
79756;BMP280;69239;50.678;12.280;2023-04-16T00:06:47;97299.34;;;9.25
79756;BMP280;69239;50.678;12.280;2023-04-16T00:09:13;97312.63;;;9.29
79756;BMP280;69239;50.678;12.280;2023-04-16T00:11:38;97308.97;;;9.30
79756;BMP280;69239;50.678;12.280;2023-04-16T00:14:03;97308.97;;;9.30
79756;BMP280;69239;50.678;12.280;2023-04-16T00:16:29;97303.69;;;9.30
79756;BMP280;69239;50.678;12.280;2023-04-16T00:18:54;97309.44;;;9.32
79756;BMP280;69239;50.678;12.280;2023-04-16T00:21:19;97308.97;;;9.30
79756;BMP280;69239;50.678;12.280;2023-04-16T00:23:45;97311.84;;;9.28
79756;BMP280;69239;50.678;12.280;2023-04-16T00:26:10;97314.97;;;9.30
79756;BMP280;69239;50.678;12.280;2023-04-16T00:28:36;97320.69;;;9.32
79756;BMP280;69239;50.678;12.280;2023-04-16T00:31:01;97319.16;;;9.31
79756;BMP280;69239;50.678;12.280;2023-04-16T00:33:26;97329.97;;;9.30
79756;BMP280;69239;50.678;12.280;2023-04-16T00:35:54;97319.47;;;9.30
79756;BMP280;69239;50.678;12.280;2023-04-16T00:38:19;97323.94;;;9.29
79756;BMP280;69239;50.678;12.280;2023-04-16T00:40:45;97316.19;;;9.24
79756;BMP280;69239;50.678;12.280;2023-04-16T00:43:10;97318.50;;;9.26
79756;BMP280;69239;50.678;12.280;2023-04-16T00:45:35;97311.69;;;9.25
79756;BMP280;69239;50.678;12.280;2023-04-16T00:48:01;97314.00;;;9.26
79756;BMP280;69239;50.678;12.280;2023-04-16T00:50:27;97311.69;;;9.25
79756;BMP280;69239;50.678;12.280;2023-04-16T00:52:52;97310.63;;;9.26
79756;BMP280;69239;50.678;12.280;2023-04-16T00:55:18;97309.53;;;9.27
79756;BMP280;69239;50.678;12.280;2023-04-16T00:57:45;97313.25;;;9.26
79756;BMP280;69239;50.678;12.280;2023-04-16T01:00:11;97317.88;;;9.29
79756;BMP280;69239;50.678;12.280;2023-04-16T01:02:37;97318.69;;;9.29
79756;BMP280;69239;50.678;12.280;2023-04-16T01:05:03;97316.84;;;9.30
79756;BMP280;69239;50.678;12.280;2023-04-16T01:07:29;97305.81;;;9.28
79756;BMP280;69239;50.678;12.280;2023-04-16T01:09:55;97304.47;;;9.30
79756;BMP280;69239;50.678;12.280;2023-04-16T01:12:20;97312.78;;;9.32
79756;BMP280;69239;50.678;12.280;2023-04-16T01:14:46;97310.94;;;9.33
79756;BMP280;69239;50.678;12.280;2023-04-16T01:17:11;97313.72;;;9.28
79756;BMP280;69239;50.678;12.280;2023-04-16T01:19:37;97313.72;;;9.28
79756;BMP280;69239;50.678;12.280;2023-04-16T01:22:03;97316.34;;;9.28
79756;BMP280;69239;50.678;12.280;2023-04-16T01:24:29;97316.47;;;9.23
79756;BMP280;69239;50.678;12.280;2023-04-16T01:26:57;97319.09;;;9.23
79756;BMP280;69239;50.678;12.280;2023-04-16T01:29:23;97314.47;;;9.20
79756;BMP280;69239;50.678;12.280;2023-04-16T01:31:48;97318.16;;;9.19
79756;BMP280;69239;50.678;12.280;2023-04-16T01:34:14;97324.50;;;9.18
79756;BMP280;69239;50.678;12.280;2023-04-16T01:36:40;97321.88;;;9.18
79756;BMP280;69239;50.678;12.280;2023-04-16T01:39:05;97326.78;;;9.11
79756;BMP280;69239;50.678;12.280;2023-04-16T01:41:30;97339.78;;;9.16
79756;BMP280;69239;50.678;12.280;2023-04-16T01:43:56;97339.44;;;9.09
79756;BMP280;69239;50.678;12.280;2023-04-16T01:46:28;97347.78;;;9.11
79756;BMP280;69239;50.678;12.280;2023-04-16T01:48:55;97342.53;;;9.11
79756;BMP280;69239;50.678;12.280;2023-04-16T01:51:21;97337.59;;;9.09
79756;BMP280;69239;50.678;12.280;2023-04-16T01:53:49;97340.22;;;9.09
79756;BMP280;69239;50.678;12.280;2023-04-16T01:56:14;97331.69;;;9.03
79756;BMP280;69239;50.678;12.280;2023-04-16T01:58:40;97335.41;;;9.02
79756;BMP280;69239;50.678;12.280;2023-04-16T02:01:07;97340.78;;;9.06
79756;BMP280;69239;50.678;12.280;2023-04-16T02:03:32;97342.66;;;9.05
79756;BMP280;69239;50.678;12.280;2023-04-16T02:05:58;97344.69;;;9.09
79756;BMP280;69239;50.678;12.280;2023-04-16T02:08:23;97342.34;;;9.07
79756;BMP280;69239;50.678;12.280;2023-04-16T02:10:49;97343.88;;;9.08
79756;BMP280;69239;50.678;12.280;2023-04-16T02:13:15;97347.78;;;9.11
79756;BMP280;69239;50.678;12.280;2023-04-16T02:15:48;97358.28;;;9.11
79756;BMP280;69239;50.678;12.280;2023-04-16T02:18:14;97355.19;;;9.09
79756;BMP280;69239;50.678;12.280;2023-04-16T02:20:43;97359.16;;;9.06
79756;BMP280;69239;50.678;12.280;2023-04-16T02:23:09;97359.47;;;9.04
79756;BMP280;69239;50.678;12.280;2023-04-16T02:25:45;97350.94;;;8.99
79756;BMP280;69239;50.678;12.280;2023-04-16T02:28:13;97349.41;;;8.98
79756;BMP280;69239;50.678;12.280;2023-04-16T02:30:40;97359.59;;;8.99
79756;BMP280;69239;50.678;12.280;2023-04-16T02:33:07;97369.97;;;9.04
79756;BMP280;69239;50.678;12.280;2023-04-16T02:35:33;97359.81;;;9.03
79756;BMP280;69239;50.678;12.280;2023-04-16T02:37:59;97357.97;;;9.03
79756;BMP280;69239;50.678;12.280;2023-04-16T02:40:25;97366.13;;;9.02
79756;BMP280;69239;50.678;12.280;2023-04-16T02:42:51;97365.34;;;9.01
79756;BMP280;69239;50.678;12.280;2023-04-16T02:45:16;97364.72;;;9.04
79756;BMP280;69239;50.678;12.280;2023-04-16T02:47:41;97360.09;;;9.01
79756;BMP280;69239;50.678;12.280;2023-04-16T02:50:07;97375.69;;;9.06
79756;BMP280;69239;50.678;12.280;2023-04-16T02:52:32;97370.59;;;9.01
79756;BMP280;69239;50.678;12.280;2023-04-16T02:54:58;97374.63;;;9.07
79756;BMP280;69239;50.678;12.280;2023-04-16T02:57:24;97376.22;;;9.09
79756;BMP280;69239;50.678;12.280;2023-04-16T02:59:49;97376.47;;;9.07
79756;BMP280;69239;50.678;12.280;2023-04-16T03:02:14;97374.16;;;9.05
79756;BMP280;69239;50.678;12.280;2023-04-16T03:04:40;97373.84;;;9.07
79756;BMP280;69239;50.678;12.280;2023-04-16T03:07:06;97376.78;;;9.05
79756;BMP280;69239;50.678;12.280;2023-04-16T03:09:33;97383.78;;;9.10
79756;BMP280;69239;50.678;12.280;2023-04-16T03:11:58;97380.47;;;9.04
79756;BMP280;69239;50.678;12.280;2023-04-16T03:14:24;97377.56;;;9.06
79756;BMP280;69239;50.678;12.280;2023-04-16T03:16:49;97388.84;;;9.06
79756;BMP280;69239;50.678;12.280;2023-04-16T03:19:14;97390.38;;;9.07
79756;BMP280;69239;50.678;12.280;2023-04-16T03:21:40;97385.00;;;9.04
79756;BMP280;69239;50.678;12.280;2023-04-16T03:24:05;97392.72;;;9.09
79756;BMP280;69239;50.678;12.280;2023-04-16T03:26:31;97384.66;;;9.05
79756;BMP280;69239;50.678;12.280;2023-04-16T03:28:56;97387.28;;;9.05
79756;BMP280;69239;50.678;12.280;2023-04-16T03:31:24;97387.63;;;9.04
79756;BMP280;69239;50.678;12.280;2023-04-16T03:33:50;97393.00;;;9.07
79756;BMP280;69239;50.678;12.280;2023-04-16T03:36:15;97392.88;;;9.04
79756;BMP280;69239;50.678;12.280;2023-04-16T03:38:41;97393.59;;;9.04
79756;BMP280;69239;50.678;12.280;2023-04-16T03:41:06;97390.53;;;9.02
79756;BMP280;69239;50.678;12.280;2023-04-16T03:43:31;97399.34;;;9.06
79756;BMP280;69239;50.678;12.280;2023-04-16T03:45:57;97394.25;;;9.01
79756;BMP280;69239;50.678;12.280;2023-04-16T03:48:22;97404.13;;;9.04
79756;BMP280;69239;50.678;12.280;2023-04-16T03:50:47;97406.75;;;9.04
79756;BMP280;69239;50.678;12.280;2023-04-16T03:53:13;97402.13;;;9.01
79756;BMP280;69239;50.678;12.280;2023-04-16T03:55:40;97402.22;;;8.96
79756;BMP280;69239;50.678;12.280;2023-04-16T03:58:05;97409.50;;;8.99
79756;BMP280;69239;50.678;12.280;2023-04-16T04:00:30;97403.88;;;8.92
79756;BMP280;69239;50.678;12.280;2023-04-16T04:02:56;97419.03;;;8.95
79756;BMP280;69239;50.678;12.280;2023-04-16T04:05:21;97428.78;;;8.95
79756;BMP280;69239;50.678;12.280;2023-04-16T04:07:47;97421.78;;;8.90
79756;BMP280;69239;50.678;12.280;2023-04-16T04:10:12;97437.53;;;8.90
79756;BMP280;69239;50.678;12.280;2023-04-16T04:12:38;97434.63;;;8.92
79756;BMP280;69239;50.678;12.280;2023-04-16T04:15:03;97424.50;;;8.85
79756;BMP280;69239;50.678;12.280;2023-04-16T04:17:29;97426.34;;;8.85
79756;BMP280;69239;50.678;12.280;2023-04-16T04:19:54;97434.44;;;8.88
79756;BMP280;69239;50.678;12.280;2023-04-16T04:22:20;97429.75;;;8.85
79756;BMP280;69239;50.678;12.280;2023-04-16T04:24:45;97425.13;;;8.82
79756;BMP280;69239;50.678;12.280;2023-04-16T04:27:10;97426.69;;;8.83
79756;BMP280;69239;50.678;12.280;2023-04-16T04:29:36;97444.94;;;8.88
79756;BMP280;69239;50.678;12.280;2023-04-16T04:32:01;97438.75;;;8.84
79756;BMP280;69239;50.678;12.280;2023-04-16T04:34:26;97444.94;;;8.88
79756;BMP280;69239;50.678;12.280;2023-04-16T04:36:52;97444.00;;;8.84
79756;BMP280;69239;50.678;12.280;2023-04-16T04:39:17;97442.88;;;8.85
79756;BMP280;69239;50.678;12.280;2023-04-16T04:41:45;97457.00;;;8.89
79756;BMP280;69239;50.678;12.280;2023-04-16T04:44:11;97455.44;;;8.88
79756;BMP280;69239;50.678;12.280;2023-04-16T04:46:36;97462.25;;;8.89
79756;BMP280;69239;50.678;12.280;2023-04-16T04:49:02;97453.72;;;8.84
79756;BMP280;69239;50.678;12.280;2023-04-16T04:51:27;97466.72;;;8.89
79756;BMP280;69239;50.678;12.280;2023-04-16T04:53:52;97462.25;;;8.89
79756;BMP280;69239;50.678;12.280;2023-04-16T04:56:18;97460.47;;;8.85
79756;BMP280;69239;50.678;12.280;2023-04-16T04:58:43;97463.78;;;8.90
79756;BMP280;69239;50.678;12.280;2023-04-16T05:01:08;97474.47;;;8.94
79756;BMP280;69239;50.678;12.280;2023-04-16T05:03:34;97460.69;;;8.88
79756;BMP280;69239;50.678;12.280;2023-04-16T05:05:59;97472.91;;;8.93
79756;BMP280;69239;50.678;12.280;2023-04-16T05:08:25;97476.19;;;8.98
79756;BMP280;69239;50.678;12.280;2023-04-16T05:10:50;97471.72;;;8.99
79756;BMP280;69239;50.678;12.280;2023-04-16T05:13:15;97473.09;;;8.96
79756;BMP280;69239;50.678;12.280;2023-04-16T05:15:41;97477.75;;;8.99
79756;BMP280;69239;50.678;12.280;2023-04-16T05:18:06;97485.50;;;9.04
79756;BMP280;69239;50.678;12.280;2023-04-16T05:20:31;97482.44;;;9.02
79756;BMP280;69239;50.678;12.280;2023-04-16T05:22:57;97482.59;;;9.06
79756;BMP280;69239;50.678;12.280;2023-04-16T05:25:22;97480.25;;;9.04
79756;BMP280;69239;50.678;12.280;2023-04-16T05:27:47;97487.06;;;9.05
79756;BMP280;69239;50.678;12.280;2023-04-16T05:30:13;97497.19;;;9.12
79756;BMP280;69239;50.678;12.280;2023-04-16T05:32:38;97495.78;;;9.15
79756;BMP280;69239;50.678;12.280;2023-04-16T05:35:05;97500.75;;;9.16
79756;BMP280;69239;50.678;12.280;2023-04-16T05:37:30;97488.97;;;9.14
79756;BMP280;69239;50.678;12.280;2023-04-16T05:39:56;97487.13;;;9.14
79756;BMP280;69239;50.678;12.280;2023-04-16T05:42:21;97485.28;;;9.15
79756;BMP280;69239;50.678;12.280;2023-04-16T05:44:46;97500.94;;;9.20
79756;BMP280;69239;50.678;12.280;2023-04-16T05:47:12;97501.13;;;9.23
79756;BMP280;69239;50.678;12.280;2023-04-16T05:49:37;97498.47;;;9.23
79756;BMP280;69239;50.678;12.280;2023-04-16T05:52:03;97507.03;;;9.29
79756;BMP280;69239;50.678;12.280;2023-04-16T05:54:29;97501.75;;;9.29
79756;BMP280;69239;50.678;12.280;2023-04-16T05:56:54;97505.97;;;9.30
79756;BMP280;69239;50.678;12.280;2023-04-16T05:59:20;97511.06;;;9.35
79756;BMP280;69239;50.678;12.280;2023-04-16T06:01:45;97510.59;;;9.33
79756;BMP280;69239;50.678;12.280;2023-04-16T06:04:11;97521.78;;;9.39
79756;BMP280;69239;50.678;12.280;2023-04-16T06:06:36;97520.81;;;9.34
79756;BMP280;69239;50.678;12.280;2023-04-16T06:09:02;97519.59;;;9.32
79756;BMP280;69239;50.678;12.280;2023-04-16T06:11:29;97531.81;;;9.36
79756;BMP280;69239;50.678;12.280;2023-04-16T06:13:54;97526.25;;;9.38
79756;BMP280;69239;50.678;12.280;2023-04-16T06:16:20;97528.28;;;9.41
79756;BMP280;69239;50.678;12.280;2023-04-16T06:18:45;97529.38;;;9.40
79756;BMP280;69239;50.678;12.280;2023-04-16T06:21:11;97535.56;;;9.44
79756;BMP280;69239;50.678;12.280;2023-04-16T06:23:36;97540.84;;;9.44
79756;BMP280;69239;50.678;12.280;2023-04-16T06:26:02;97535.06;;;9.42
79756;BMP280;69239;50.678;12.280;2023-04-16T06:28:27;97533.53;;;9.41
79756;BMP280;69239;50.678;12.280;2023-04-16T06:30:52;97538.31;;;9.39
79756;BMP280;69239;50.678;12.280;2023-04-16T06:33:18;97538.69;;;9.46
79756;BMP280;69239;50.678;12.280;2023-04-16T06:35:43;97536.06;;;9.46
79756;BMP280;69239;50.678;12.280;2023-04-16T06:38:09;97548.00;;;9.52
79756;BMP280;69239;50.678;12.280;2023-04-16T06:40:34;97543.50;;;9.53
79756;BMP280;69239;50.678;12.280;2023-04-16T06:43:01;97552.06;;;9.58
79756;BMP280;69239;50.678;12.280;2023-04-16T06:45:27;97554.06;;;9.61
79756;BMP280;69239;50.678;12.280;2023-04-16T06:47:52;97555.53;;;9.67
79756;BMP280;69239;50.678;12.280;2023-04-16T06:50:17;97545.47;;;9.69
79756;BMP280;69239;50.678;12.280;2023-04-16T06:52:43;97558.19;;;9.76
79756;BMP280;69239;50.678;12.280;2023-04-16T06:55:09;97553.72;;;9.77
79756;BMP280;69239;50.678;12.280;2023-04-16T06:57:35;97561.28;;;9.78
79756;BMP280;69239;50.678;12.280;2023-04-16T07:00:00;97560.41;;;9.83
79756;BMP280;69239;50.678;12.280;2023-04-16T07:02:25;97556.56;;;9.89
79756;BMP280;69239;50.678;12.280;2023-04-16T07:04:51;97558.09;;;9.90
79756;BMP280;69239;50.678;12.280;2023-04-16T07:07:17;97554.22;;;9.87
79756;BMP280;69239;50.678;12.280;2023-04-16T07:09:42;97567.41;;;9.96
79756;BMP280;69239;50.678;12.280;2023-04-16T07:12:08;97554.59;;;9.94
79756;BMP280;69239;50.678;12.280;2023-04-16T07:14:33;97558.44;;;9.97
79756;BMP280;69239;50.678;12.280;2023-04-16T07:16:58;97560.19;;;10.02
79756;BMP280;69239;50.678;12.280;2023-04-16T07:19:24;97563.31;;;10.04
79756;BMP280;69239;50.678;12.280;2023-04-16T07:21:50;97564.25;;;10.08
79756;BMP280;69239;50.678;12.280;2023-04-16T07:24:15;97576.97;;;10.14
79756;BMP280;69239;50.678;12.280;2023-04-16T07:26:41;97579.75;;;10.18
79756;BMP280;69239;50.678;12.280;2023-04-16T07:29:06;97575.28;;;10.18
79756;BMP280;69239;50.678;12.280;2023-04-16T07:31:32;97587.34;;;10.19
79756;BMP280;69239;50.678;12.280;2023-04-16T07:33:57;97583.63;;;10.20
79756;BMP280;69239;50.678;12.280;2023-04-16T07:36:23;97586.13;;;10.25
79756;BMP280;69239;50.678;12.280;2023-04-16T07:38:48;97586.13;;;10.25
79756;BMP280;69239;50.678;12.280;2023-04-16T07:41:14;97591.59;;;10.29
79756;BMP280;69239;50.678;12.280;2023-04-16T07:43:39;97592.34;;;10.29
79756;BMP280;69239;50.678;12.280;2023-04-16T07:46:04;97600.25;;;10.38
79756;BMP280;69239;50.678;12.280;2023-04-16T07:48:30;97598.09;;;10.40
79756;BMP280;69239;50.678;12.280;2023-04-16T07:50:55;97613.16;;;10.48
79756;BMP280;69239;50.678;12.280;2023-04-16T07:53:21;97600.28;;;10.47
79756;BMP280;69239;50.678;12.280;2023-04-16T07:55:47;97615.84;;;10.57
79756;BMP280;69239;50.678;12.280;2023-04-16T07:58:12;97611.81;;;10.59
79756;BMP280;69239;50.678;12.280;2023-04-16T08:00:38;97613.53;;;10.64
79756;BMP280;69239;50.678;12.280;2023-04-16T08:03:03;97614.78;;;10.67
79756;BMP280;69239;50.678;12.280;2023-04-16T08:05:29;97617.44;;;10.75
79756;BMP280;69239;50.678;12.280;2023-04-16T08:07:54;97618.53;;;10.83
79756;BMP280;69239;50.678;12.280;2023-04-16T08:10:21;97615.75;;;10.88
79756;BMP280;69239;50.678;12.280;2023-04-16T08:12:46;97612.69;;;10.94
79756;BMP280;69239;50.678;12.280;2023-04-16T08:15:11;97622.56;;;10.98
79756;BMP280;69239;50.678;12.280;2023-04-16T08:17:37;97619.19;;;11.06
79756;BMP280;69239;50.678;12.280;2023-04-16T08:20:03;97612.84;;;11.15
79756;BMP280;69239;50.678;12.280;2023-04-16T08:22:28;97626.97;;;11.28
79756;BMP280;69239;50.678;12.280;2023-04-16T08:24:54;97623.56;;;11.36
79756;BMP280;69239;50.678;12.280;2023-04-16T08:27:19;97631.16;;;11.46
79756;BMP280;69239;50.678;12.280;2023-04-16T08:29:46;97626.50;;;11.52
79756;BMP280;69239;50.678;12.280;2023-04-16T08:32:11;97629.63;;;11.63
79756;BMP280;69239;50.678;12.280;2023-04-16T08:34:37;97637.81;;;11.70
79756;BMP280;69239;50.678;12.280;2023-04-16T08:37:02;97641.84;;;11.76
79756;BMP280;69239;50.678;12.280;2023-04-16T08:39:28;97649.13;;;11.79
79756;BMP280;69239;50.678;12.280;2023-04-16T08:41:53;97660.63;;;11.83
79756;BMP280;69239;50.678;12.280;2023-04-16T08:44:25;97654.38;;;11.79
79756;BMP280;69239;50.678;12.280;2023-04-16T08:46:52;97648.31;;;11.87
79756;BMP280;69239;50.678;12.280;2023-04-16T08:49:23;97648.31;;;11.87
79756;BMP280;69239;50.678;12.280;2023-04-16T08:51:50;97654.66;;;11.95
79756;BMP280;69239;50.678;12.280;2023-04-16T08:54:36;97657.81;;;11.97
79756;BMP280;69239;50.678;12.280;2023-04-16T08:57:05;97661.00;;;12.02
79756;BMP280;69239;50.678;12.280;2023-04-16T08:59:31;97663.50;;;12.07
79756;BMP280;69239;50.678;12.280;2023-04-16T09:01:57;97666.59;;;12.09
79756;BMP280;69239;50.678;12.280;2023-04-16T09:04:25;97666.44;;;12.14
79756;BMP280;69239;50.678;12.280;2023-04-16T09:06:52;97663.97;;;12.18
79756;BMP280;69239;50.678;12.280;2023-04-16T09:09:19;97671.56;;;12.19
79756;BMP280;69239;50.678;12.280;2023-04-16T09:11:49;97674.03;;;12.25
79756;BMP280;69239;50.678;12.280;2023-04-16T09:14:15;97674.94;;;12.29
79756;BMP280;69239;50.678;12.280;2023-04-16T09:16:41;97676.66;;;12.33
79756;BMP280;69239;50.678;12.280;2023-04-16T09:19:07;97685.44;;;12.37
79756;BMP280;69239;50.678;12.280;2023-04-16T09:21:33;97684.53;;;12.42
79756;BMP280;69239;50.678;12.280;2023-04-16T09:23:59;97681.72;;;12.47
79756;BMP280;69239;50.678;12.280;2023-04-16T09:26:25;97682.59;;;12.51
79756;BMP280;69239;50.678;12.280;2023-04-16T09:28:51;97689.72;;;12.59
79756;BMP280;69239;50.678;12.280;2023-04-16T09:31:17;97687.56;;;12.61
79756;BMP280;69239;50.678;12.280;2023-04-16T09:34:00;97690.94;;;12.70
79756;BMP280;69239;50.678;12.280;2023-04-16T09:36:26;97695.84;;;12.80
79756;BMP280;69239;50.678;12.280;2023-04-16T09:38:52;97693.03;;;12.85
79756;BMP280;69239;50.678;12.280;2023-04-16T09:41:23;97697.03;;;12.92
79756;BMP280;69239;50.678;12.280;2023-04-16T09:43:53;97691.75;;;12.92
79756;BMP280;69239;50.678;12.280;2023-04-16T09:46:34;97694.66;;;12.99
79756;BMP280;69239;50.678;12.280;2023-04-16T09:49:16;97695.75;;;12.98
79756;BMP280;69239;50.678;12.280;2023-04-16T09:51:47;97710.09;;;12.97
79756;BMP280;69239;50.678;12.280;2023-04-16T09:54:20;97709.31;;;12.96
79756;BMP280;69239;50.678;12.280;2023-04-16T09:56:45;97708.06;;;12.94
79756;BMP280;69239;50.678;12.280;2023-04-16T09:59:17;97712.88;;;12.92
79756;BMP280;69239;50.678;12.280;2023-04-16T10:01:43;97714.44;;;12.93
79756;BMP280;69239;50.678;12.280;2023-04-16T10:04:11;97719.13;;;12.96
79756;BMP280;69239;50.678;12.280;2023-04-16T10:06:36;97725.94;;;12.97
79756;BMP280;69239;50.678;12.280;2023-04-16T10:09:06;97727.47;;;12.98
79756;BMP280;69239;50.678;12.280;2023-04-16T10:11:31;97725.94;;;12.97
79756;BMP280;69239;50.678;12.280;2023-04-16T10:13:57;97723.72;;;12.99
79756;BMP280;69239;50.678;12.280;2023-04-16T10:16:22;97723.13;;;13.02
79756;BMP280;69239;50.678;12.280;2023-04-16T10:18:48;97726.03;;;13.09
79756;BMP280;69239;50.678;12.280;2023-04-16T10:21:13;97734.25;;;13.16
79756;BMP280;69239;50.678;12.280;2023-04-16T10:23:41;97739.00;;;13.23
79756;BMP280;69239;50.678;12.280;2023-04-16T10:26:07;97734.78;;;13.30
79756;BMP280;69239;50.678;12.280;2023-04-16T10:28:33;97736.56;;;13.38
79756;BMP280;69239;50.678;12.280;2023-04-16T10:31:02;97730.97;;;13.40
79756;BMP280;69239;50.678;12.280;2023-04-16T10:33:33;97739.25;;;13.50
79756;BMP280;69239;50.678;12.280;2023-04-16T10:36:14;97737.69;;;13.58
79756;BMP280;69239;50.678;12.280;2023-04-16T10:38:45;97734.06;;;13.63
79756;BMP280;69239;50.678;12.280;2023-04-16T10:41:10;97730.25;;;13.72
79756;BMP280;69239;50.678;12.280;2023-04-16T10:43:43;97730.34;;;13.76
79756;BMP280;69239;50.678;12.280;2023-04-16T10:46:29;97737.78;;;13.82
79756;BMP280;69239;50.678;12.280;2023-04-16T10:48:59;97734.19;;;13.87
79756;BMP280;69239;50.678;12.280;2023-04-16T10:53:57;97741.25;;;13.95
79756;BMP280;69239;50.678;12.280;2023-04-16T10:56:24;97735.38;;;13.90
79756;BMP280;69239;50.678;12.280;2023-04-16T10:58:52;97744.25;;;13.94
79756;BMP280;69239;50.678;12.280;2023-04-16T11:01:18;97743.66;;;13.88
79756;BMP280;69239;50.678;12.280;2023-04-16T11:03:50;97745.38;;;13.84
79756;BMP280;69239;50.678;12.280;2023-04-16T11:06:22;97744.94;;;13.82
79756;BMP280;69239;50.678;12.280;2023-04-16T11:08:49;97745.59;;;13.79
79756;BMP280;69239;50.678;12.280;2023-04-16T11:11:15;97751.19;;;13.77
79756;BMP280;69239;50.678;12.280;2023-04-16T11:13:42;97752.19;;;13.73
79756;BMP280;69239;50.678;12.280;2023-04-16T11:16:09;97747.28;;;13.63
79756;BMP280;69239;50.678;12.280;2023-04-16T11:18:35;97751.81;;;13.62
79756;BMP280;69239;50.678;12.280;2023-04-16T11:21:01;97749.03;;;13.59
79756;BMP280;69239;50.678;12.280;2023-04-16T11:23:26;97744.97;;;13.61
79756;BMP280;69239;50.678;12.280;2023-04-16T11:25:52;97755.66;;;13.65
79756;BMP280;69239;50.678;12.280;2023-04-16T11:28:31;97754.59;;;13.66
79756;BMP280;69239;50.678;12.280;2023-04-16T11:30:57;97747.28;;;13.63
79756;BMP280;69239;50.678;12.280;2023-04-16T11:33:24;97757.50;;;13.73
79756;BMP280;69239;50.678;12.280;2023-04-16T11:35:56;97762.09;;;13.76
79756;BMP280;69239;50.678;12.280;2023-04-16T11:38:37;97760.59;;;13.75
79756;BMP280;69239;50.678;12.280;2023-04-16T11:41:02;97764.09;;;13.79
79756;BMP280;69239;50.678;12.280;2023-04-16T11:43:28;97757.94;;;13.75
79756;BMP280;69239;50.678;12.280;2023-04-16T11:46:04;97771.53;;;13.85
79756;BMP280;69239;50.678;12.280;2023-04-16T11:48:50;97766.25;;;13.85
79756;BMP280;69239;50.678;12.280;2023-04-16T11:51:16;97771.00;;;13.92
79756;BMP280;69239;50.678;12.280;2023-04-16T11:53:49;97773.38;;;13.94
79756;BMP280;69239;50.678;12.280;2023-04-16T11:56:14;97768.84;;;13.94
79756;BMP280;69239;50.678;12.280;2023-04-16T11:58:41;97770.38;;;13.95
79756;BMP280;69239;50.678;12.280;2023-04-16T12:01:07;97767.56;;;14.00
79756;BMP280;69239;50.678;12.280;2023-04-16T12:03:40;97776.16;;;14.09
79756;BMP280;69239;50.678;12.280;2023-04-16T12:06:10;97779.91;;;14.08
79756;BMP280;69239;50.678;12.280;2023-04-16T12:08:36;97778.34;;;14.07
79756;BMP280;69239;50.678;12.280;2023-04-16T12:11:01;97781.91;;;14.11
79756;BMP280;69239;50.678;12.280;2023-04-16T12:13:27;97783.59;;;14.16
79756;BMP280;69239;50.678;12.280;2023-04-16T12:15:53;97781.72;;;14.16
79756;BMP280;69239;50.678;12.280;2023-04-16T12:18:20;97780.34;;;14.10
79756;BMP280;69239;50.678;12.280;2023-04-16T12:20:50;97784.44;;;14.08
79756;BMP280;69239;50.678;12.280;2023-04-16T12:23:26;97789.41;;;14.09
79756;BMP280;69239;50.678;12.280;2023-04-16T12:25:52;97788.75;;;14.12
79756;BMP280;69239;50.678;12.280;2023-04-16T12:28:36;97797.59;;;14.16
79756;BMP280;69239;50.678;12.280;2023-04-16T12:31:04;97792.75;;;14.18
79756;BMP280;69239;50.678;12.280;2023-04-16T12:33:30;97789.19;;;14.14
79756;BMP280;69239;50.678;12.280;2023-04-16T12:35:55;97801.03;;;14.17
79756;BMP280;69239;50.678;12.280;2023-04-16T12:38:21;97797.59;;;14.16
79756;BMP280;69239;50.678;12.280;2023-04-16T12:40:46;97802.00;;;14.12
79756;BMP280;69239;50.678;12.280;2023-04-16T12:43:12;97797.03;;;14.11
79756;BMP280;69239;50.678;12.280;2023-04-16T12:45:40;97790.19;;;14.10
79756;BMP280;69239;50.678;12.280;2023-04-16T12:48:06;97803.34;;;14.18
79756;BMP280;69239;50.678;12.280;2023-04-16T12:50:31;97798.03;;;14.18
79756;BMP280;69239;50.678;12.280;2023-04-16T12:52:57;97798.47;;;14.20
79756;BMP280;69239;50.678;12.280;2023-04-16T12:55:23;97796.50;;;14.17
79756;BMP280;69239;50.678;12.280;2023-04-16T12:57:49;97804.44;;;14.17
79756;BMP280;69239;50.678;12.280;2023-04-16T13:00:17;97795.72;;;14.17
79756;BMP280;69239;50.678;12.280;2023-04-16T13:02:42;97796.50;;;14.17
79756;BMP280;69239;50.678;12.280;2023-04-16T13:05:08;97796.03;;;14.15
79756;BMP280;69239;50.678;12.280;2023-04-16T13:07:33;97793.06;;;14.17
79756;BMP280;69239;50.678;12.280;2023-04-16T13:09:59;97801.88;;;14.09
79756;BMP280;69239;50.678;12.280;2023-04-16T13:12:25;97795.22;;;14.03
79756;BMP280;69239;50.678;12.280;2023-04-16T13:14:51;97799.16;;;13.97
79756;BMP280;69239;50.678;12.280;2023-04-16T13:17:16;97798.91;;;13.90
79756;BMP280;69239;50.678;12.280;2023-04-16T13:19:42;97803.00;;;13.87
79756;BMP280;69239;50.678;12.280;2023-04-16T13:22:08;97803.16;;;13.82
79756;BMP280;69239;50.678;12.280;2023-04-16T13:24:33;97815.47;;;13.78
79756;BMP280;69239;50.678;12.280;2023-04-16T13:26:59;97809.75;;;13.76
79756;BMP280;69239;50.678;12.280;2023-04-16T13:29:24;97818.03;;;13.74
79756;BMP280;69239;50.678;12.280;2023-04-16T13:31:50;97807.94;;;13.68
79756;BMP280;69239;50.678;12.280;2023-04-16T13:34:15;97809.50;;;13.69
79756;BMP280;69239;50.678;12.280;2023-04-16T13:36:40;97814.97;;;13.64
79756;BMP280;69239;50.678;12.280;2023-04-16T13:39:06;97813.31;;;13.59
79756;BMP280;69239;50.678;12.280;2023-04-16T13:41:38;97807.16;;;13.46
79756;BMP280;69239;50.678;12.280;2023-04-16T13:44:04;97809.97;;;13.41
79756;BMP280;69239;50.678;12.280;2023-04-16T13:46:30;97812.16;;;13.39
79756;BMP280;69239;50.678;12.280;2023-04-16T13:48:56;97806.47;;;13.29
79756;BMP280;69239;50.678;12.280;2023-04-16T13:51:21;97814.72;;;13.27
79756;BMP280;69239;50.678;12.280;2023-04-16T13:53:47;97812.25;;;13.22
79756;BMP280;69239;50.678;12.280;2023-04-16T13:56:12;97805.13;;;13.14
79756;BMP280;69239;50.678;12.280;2023-04-16T13:58:38;97815.41;;;13.15
79756;BMP280;69239;50.678;12.280;2023-04-16T14:01:03;97806.72;;;13.06
79756;BMP280;69239;50.678;12.280;2023-04-16T14:03:28;97811.22;;;13.06